createdAt,value
2022-11-17T00:00:53.858Z,17.86
2022-11-17T00:01:53.888Z,17.90
2022-11-17T00:02:53.928Z,17.86
2022-11-17T00:03:53.841Z,17.87
2022-11-17T00:04:53.830Z,17.90
2022-11-17T00:05:53.836Z,17.92
2022-11-17T00:06:53.886Z,17.93
2022-11-17T00:07:53.831Z,17.86
2022-11-17T00:08:53.817Z,17.84
2022-11-17T00:09:53.818Z,17.90
2022-11-17T00:10:53.830Z,17.90
2022-11-17T00:11:53.817Z,17.99
2022-11-17T00:12:53.818Z,17.87
2022-11-17T00:13:53.807Z,17.87
2022-11-17T00:14:53.809Z,17.89
2022-11-17T00:15:53.803Z,17.96
2022-11-17T00:16:53.802Z,17.92
2022-11-17T00:17:53.803Z,17.90
2022-11-17T00:18:53.793Z,17.95
2022-11-17T00:19:53.791Z,17.87
2022-11-17T00:20:53.793Z,17.99
2022-11-17T00:21:53.790Z,17.90
2022-11-17T00:22:53.893Z,17.95
2022-11-17T00:23:53.785Z,17.93
2022-11-17T00:24:53.789Z,17.97
2022-11-17T00:25:53.771Z,17.96
2022-11-17T00:26:53.778Z,17.90
2022-11-17T00:27:53.776Z,17.93
2022-11-17T00:28:53.772Z,17.87
2022-11-17T00:29:53.771Z,17.89
2022-11-17T00:30:53.757Z,17.93
2022-11-17T00:31:53.759Z,17.92
2022-11-17T00:32:53.759Z,17.93
2022-11-17T00:33:53.780Z,17.89
2022-11-17T00:34:53.748Z,17.95
2022-11-17T00:35:53.749Z,17.93
2022-11-17T00:36:53.771Z,17.89
2022-11-17T00:37:53.755Z,17.92
2022-11-17T00:38:53.852Z,17.87
2022-11-17T00:39:59.301Z,17.97
2022-11-17T00:40:53.725Z,17.93
2022-11-17T00:41:53.735Z,17.87
2022-11-17T00:42:53.731Z,17.97
2022-11-17T00:43:53.722Z,17.93
2022-11-17T00:44:53.728Z,17.93
2022-11-17T00:45:53.713Z,17.93
2022-11-17T00:46:53.718Z,17.92
2022-11-17T00:47:53.724Z,17.89
2022-11-17T00:48:53.715Z,17.89
2022-11-17T00:49:53.710Z,17.86
2022-11-17T00:50:53.699Z,17.92
2022-11-17T00:51:53.698Z,17.95
2022-11-17T00:52:53.701Z,17.82
2022-11-17T00:53:53.710Z,17.93
2022-11-17T00:54:53.715Z,17.87
2022-11-17T00:55:53.802Z,17.89
2022-11-17T00:56:53.679Z,17.92
2022-11-17T00:57:53.685Z,17.93
2022-11-17T00:58:53.687Z,17.84
2022-11-17T00:59:53.674Z,17.86
2022-11-17T01:00:53.686Z,17.86
2022-11-17T01:01:53.723Z,17.82
2022-11-17T01:02:53.687Z,17.87
2022-11-17T01:03:53.674Z,17.82
2022-11-17T01:04:53.658Z,17.92
2022-11-17T01:05:53.686Z,17.90
2022-11-17T01:06:53.701Z,17.84
2022-11-17T01:07:53.663Z,17.87
2022-11-17T01:08:53.665Z,17.84
2022-11-17T01:09:53.656Z,17.87
2022-11-17T01:10:53.677Z,17.89
2022-11-17T01:11:53.687Z,17.86
2022-11-17T01:12:53.644Z,17.86
2022-11-17T01:13:53.644Z,17.84
2022-11-17T01:14:53.633Z,17.90
2022-11-17T01:15:53.629Z,17.89
2022-11-17T01:16:53.657Z,17.90
2022-11-17T01:17:53.631Z,17.93
2022-11-17T01:18:53.625Z,17.84
2022-11-17T01:19:53.626Z,17.87
2022-11-17T01:20:53.619Z,17.89
2022-11-17T01:21:53.620Z,17.90
2022-11-17T01:22:53.615Z,17.89
2022-11-17T01:23:53.609Z,17.87
2022-11-17T01:24:53.608Z,17.87
2022-11-17T01:25:53.608Z,17.89
2022-11-17T01:26:53.820Z,17.82
2022-11-17T01:27:53.596Z,17.86
2022-11-17T01:28:53.595Z,17.87
2022-11-17T01:29:53.592Z,17.89
2022-11-17T01:30:53.587Z,17.89
2022-11-17T01:31:53.579Z,17.87
2022-11-17T01:32:53.583Z,17.87
2022-11-17T01:33:53.582Z,17.84
2022-11-17T01:34:53.575Z,17.87
2022-11-17T01:35:53.572Z,17.90
2022-11-17T01:36:53.567Z,17.87
2022-11-17T01:37:53.577Z,17.82
2022-11-17T01:38:53.568Z,17.82
2022-11-17T01:39:53.556Z,17.84
2022-11-17T01:40:53.560Z,17.89
2022-11-17T01:41:53.554Z,17.90
2022-11-17T01:42:53.574Z,17.87
2022-11-17T01:43:53.549Z,17.89
2022-11-17T01:44:53.555Z,17.84
2022-11-17T01:45:53.543Z,17.82
2022-11-17T01:46:58.221Z,17.89
2022-11-17T01:47:53.549Z,17.84
2022-11-17T01:48:53.535Z,17.90
2022-11-17T01:49:53.531Z,17.86
2022-11-17T01:50:53.525Z,17.89
2022-11-17T01:51:53.536Z,17.92
2022-11-17T01:52:53.527Z,17.81
2022-11-17T01:53:53.529Z,17.86
2022-11-17T01:54:53.525Z,17.86
2022-11-17T01:55:53.521Z,17.81
2022-11-17T01:56:53.512Z,17.84
2022-11-17T01:57:53.526Z,17.86
2022-11-17T01:58:53.533Z,17.84
2022-11-17T01:59:53.499Z,17.87
2022-11-17T02:00:53.509Z,17.78
2022-11-17T02:01:53.545Z,17.81
2022-11-17T02:02:53.487Z,17.87
2022-11-17T02:03:53.499Z,17.86
2022-11-17T02:04:53.495Z,17.87
2022-11-17T02:05:53.490Z,17.87
2022-11-17T02:06:53.535Z,17.92
2022-11-17T02:07:53.482Z,17.89
2022-11-17T02:08:53.485Z,17.89
2022-11-17T02:09:53.472Z,17.82
2022-11-17T02:10:53.468Z,17.84
2022-11-17T02:11:53.470Z,17.82
2022-11-17T02:12:53.458Z,17.82
2022-11-17T02:13:53.458Z,17.82
2022-11-17T02:14:53.483Z,17.89
2022-11-17T02:15:53.460Z,17.82
2022-11-17T02:16:53.447Z,17.90
2022-11-17T02:17:53.445Z,17.82
2022-11-17T02:18:53.447Z,17.89
2022-11-17T02:19:53.454Z,17.82
2022-11-17T02:20:53.442Z,17.86
2022-11-17T02:21:53.437Z,17.84
2022-11-17T02:22:53.439Z,17.84
2022-11-17T02:23:53.445Z,17.84
2022-11-17T02:24:53.430Z,17.79
2022-11-17T02:25:53.438Z,17.82
2022-11-17T02:26:53.430Z,17.82
2022-11-17T02:27:53.424Z,17.82
2022-11-17T02:28:53.412Z,17.81
2022-11-17T02:29:53.410Z,17.90
2022-11-17T02:30:53.446Z,17.82
2022-11-17T02:31:53.403Z,17.84
2022-11-17T02:32:53.400Z,17.84
2022-11-17T02:33:53.394Z,17.82
2022-11-17T02:34:53.396Z,17.84
2022-11-17T02:35:53.406Z,17.82
2022-11-17T02:36:53.387Z,17.82
2022-11-17T02:37:53.392Z,17.82
2022-11-17T02:38:53.392Z,17.84
2022-11-17T02:39:53.381Z,17.89
2022-11-17T02:40:53.376Z,17.81
2022-11-17T02:41:53.375Z,17.82
2022-11-17T02:42:53.384Z,17.82
2022-11-17T02:43:53.374Z,17.84
2022-11-17T02:44:53.365Z,17.86
2022-11-17T02:45:53.370Z,17.82
2022-11-17T02:46:53.473Z,17.79
2022-11-17T02:47:53.360Z,17.86
2022-11-17T02:48:53.359Z,17.78
2022-11-17T02:49:53.357Z,17.86
2022-11-17T02:50:53.348Z,17.81
2022-11-17T02:51:53.350Z,17.82
2022-11-17T02:52:53.350Z,17.86
2022-11-17T02:53:53.347Z,17.87
2022-11-17T02:54:53.348Z,17.82
2022-11-17T02:55:53.342Z,17.86
2022-11-17T02:56:53.337Z,17.79
2022-11-17T02:57:53.335Z,17.82
2022-11-17T02:58:53.329Z,17.79
2022-11-17T02:59:53.332Z,17.84
2022-11-17T03:00:53.344Z,17.90
2022-11-17T03:01:53.358Z,17.84
2022-11-17T03:02:53.421Z,17.82
2022-11-17T03:03:53.316Z,17.84
2022-11-17T03:04:53.309Z,17.86
2022-11-17T03:05:53.322Z,17.87
2022-11-17T03:06:53.384Z,17.86
2022-11-17T03:07:53.305Z,17.87
2022-11-17T03:08:53.311Z,17.82
2022-11-17T03:09:53.299Z,17.82
2022-11-17T03:10:53.290Z,17.82
2022-11-17T03:11:53.297Z,17.86
2022-11-17T03:12:53.280Z,17.84
2022-11-17T03:13:53.281Z,17.89
2022-11-17T03:14:53.284Z,17.82
2022-11-17T03:15:53.289Z,17.82
2022-11-17T03:16:53.289Z,17.87
2022-11-17T03:17:53.275Z,17.82
2022-11-17T03:18:53.282Z,17.78
2022-11-17T03:19:53.259Z,17.82
2022-11-17T03:20:53.257Z,17.84
2022-11-17T03:21:53.263Z,17.79
2022-11-17T03:22:53.259Z,17.82
2022-11-17T03:23:53.251Z,17.79
2022-11-17T03:24:53.246Z,17.84
2022-11-17T03:25:53.246Z,17.79
2022-11-17T03:26:53.249Z,17.79
2022-11-17T03:27:53.255Z,17.89
2022-11-17T03:28:53.253Z,17.79
2022-11-17T03:29:53.229Z,17.81
2022-11-17T03:30:53.232Z,17.84
2022-11-17T03:31:53.235Z,17.86
2022-11-17T03:32:53.224Z,17.82
2022-11-17T03:33:53.226Z,17.86
2022-11-17T03:34:53.330Z,17.82
2022-11-17T03:35:53.220Z,17.82
2022-11-17T03:36:53.226Z,17.78
2022-11-17T03:37:53.236Z,17.86
2022-11-17T03:38:53.218Z,17.84
2022-11-17T03:39:53.209Z,17.78
2022-11-17T03:40:53.204Z,17.93
2022-11-17T03:41:53.204Z,17.87
2022-11-17T03:42:53.200Z,17.86
2022-11-17T03:43:53.198Z,17.78
2022-11-17T03:44:53.199Z,17.84
2022-11-17T03:45:53.184Z,17.89
2022-11-17T03:46:53.193Z,17.81
2022-11-17T03:47:53.182Z,17.82
2022-11-17T03:48:53.180Z,17.84
2022-11-17T03:49:53.181Z,17.82
2022-11-17T03:50:53.288Z,17.78
2022-11-17T03:51:53.174Z,17.82
2022-11-17T03:52:53.170Z,17.87
2022-11-17T03:53:53.175Z,17.77
2022-11-17T03:54:53.160Z,17.82
2022-11-17T03:55:53.162Z,17.81
2022-11-17T03:56:53.165Z,17.78
2022-11-17T03:57:53.158Z,17.87
2022-11-17T03:58:53.156Z,17.82
2022-11-17T03:59:53.157Z,17.87
2022-11-17T04:00:53.148Z,17.87
2022-11-17T04:01:53.184Z,17.82
2022-11-17T04:02:53.145Z,17.79
2022-11-17T04:03:53.140Z,17.79
2022-11-17T04:04:53.135Z,17.77
2022-11-17T04:05:53.133Z,17.72
2022-11-17T04:06:53.337Z,17.75
2022-11-17T04:07:53.129Z,17.75
2022-11-17T04:08:53.126Z,17.75
2022-11-17T04:09:53.116Z,17.75
2022-11-17T04:10:53.116Z,17.87
2022-11-17T04:11:53.106Z,17.77
2022-11-17T04:12:53.123Z,17.81
2022-11-17T04:13:53.105Z,17.74
2022-11-17T04:14:53.104Z,17.79
2022-11-17T04:15:53.106Z,17.81
2022-11-17T04:16:53.090Z,17.74
2022-11-17T04:17:53.137Z,17.74
2022-11-17T04:18:58.506Z,17.72
2022-11-17T04:19:53.090Z,17.81
2022-11-17T04:20:53.097Z,17.70
2022-11-17T04:21:53.078Z,17.74
2022-11-17T04:22:53.107Z,17.77
2022-11-17T04:23:53.081Z,17.75
2022-11-17T04:24:53.076Z,17.77
2022-11-17T04:25:53.073Z,17.82
2022-11-17T04:26:53.067Z,17.74
2022-11-17T04:27:53.067Z,17.74
2022-11-17T04:28:53.058Z,17.75
2022-11-17T04:29:53.064Z,17.86
2022-11-17T04:30:53.061Z,17.74
2022-11-17T04:31:53.049Z,17.75
2022-11-17T04:32:53.046Z,17.77
2022-11-17T04:33:53.057Z,17.75
2022-11-17T04:34:53.060Z,17.78
2022-11-17T04:35:53.042Z,17.75
2022-11-17T04:36:53.037Z,17.77
2022-11-17T04:37:53.044Z,17.74
2022-11-17T04:38:53.147Z,17.72
2022-11-17T04:39:53.023Z,17.74
2022-11-17T04:40:53.026Z,17.74
2022-11-17T04:41:53.014Z,17.75
2022-11-17T04:42:53.030Z,17.75
2022-11-17T04:43:53.022Z,17.74
2022-11-17T04:44:53.024Z,17.77
2022-11-17T04:45:53.027Z,17.77
2022-11-17T04:46:53.013Z,17.77
2022-11-17T04:47:52.997Z,17.77
2022-11-17T04:48:53.007Z,17.75
2022-11-17T04:49:53.003Z,17.74
2022-11-17T04:50:52.992Z,17.74
2022-11-17T04:51:52.994Z,17.75
2022-11-17T04:52:52.989Z,17.71
2022-11-17T04:53:52.982Z,17.78
2022-11-17T04:54:53.103Z,17.70
2022-11-17T04:55:52.992Z,17.77
2022-11-17T04:56:52.974Z,17.77
2022-11-17T04:57:52.978Z,17.78
2022-11-17T04:58:52.969Z,17.78
2022-11-17T04:59:52.982Z,17.79
2022-11-17T05:00:52.979Z,17.74
2022-11-17T05:01:53.033Z,17.72
2022-11-17T05:02:52.960Z,17.72
2022-11-17T05:03:52.954Z,17.75
2022-11-17T05:04:52.953Z,17.74
2022-11-17T05:05:52.954Z,17.78
2022-11-17T05:06:53.019Z,17.78
2022-11-17T05:07:52.954Z,17.75
2022-11-17T05:08:52.942Z,17.74
2022-11-17T05:09:52.941Z,17.77
2022-11-17T05:10:52.998Z,17.74
2022-11-17T05:11:52.950Z,17.81
2022-11-17T05:12:52.935Z,17.77
2022-11-17T05:13:52.926Z,17.75
2022-11-17T05:14:52.927Z,17.78
2022-11-17T05:15:52.941Z,17.72
2022-11-17T05:16:52.929Z,17.74
2022-11-17T05:17:52.942Z,17.74
2022-11-17T05:18:52.932Z,17.74
2022-11-17T05:19:52.905Z,17.75
2022-11-17T05:20:52.918Z,17.74
2022-11-17T05:21:52.910Z,17.78
2022-11-17T05:22:52.916Z,17.68
2022-11-17T05:23:52.905Z,17.74
2022-11-17T05:24:52.891Z,17.74
2022-11-17T05:25:52.888Z,17.75
2022-11-17T05:26:53.009Z,17.74
2022-11-17T05:27:52.908Z,17.74
2022-11-17T05:28:52.888Z,17.74
2022-11-17T05:29:52.877Z,17.75
2022-11-17T05:30:52.878Z,17.78
2022-11-17T05:31:52.867Z,17.72
2022-11-17T05:32:52.876Z,17.72
2022-11-17T05:33:52.867Z,17.77
2022-11-17T05:34:52.865Z,17.75
2022-11-17T05:35:52.865Z,17.72
2022-11-17T05:36:52.868Z,17.72
2022-11-17T05:37:52.864Z,17.71
2022-11-17T05:38:52.858Z,17.77
2022-11-17T05:39:52.854Z,17.75
2022-11-17T05:40:52.859Z,17.74
2022-11-17T05:41:52.849Z,17.75
2022-11-17T05:42:56.926Z,17.71
2022-11-17T05:43:52.846Z,17.74
2022-11-17T05:44:52.886Z,17.72
2022-11-17T05:45:52.883Z,17.71
2022-11-17T05:46:52.827Z,17.71
2022-11-17T05:47:52.832Z,17.78
2022-11-17T05:48:52.830Z,17.75
2022-11-17T05:49:52.812Z,17.74
2022-11-17T05:50:52.816Z,17.74
2022-11-17T05:51:53.298Z,17.71
2022-11-17T05:52:52.816Z,17.74
2022-11-17T05:53:52.815Z,17.70
2022-11-17T05:54:52.811Z,17.75
2022-11-17T05:55:52.799Z,17.75
2022-11-17T05:56:52.806Z,17.71
2022-11-17T05:57:52.796Z,17.66
2022-11-17T05:58:52.821Z,17.74
2022-11-17T05:59:52.792Z,17.78
2022-11-17T06:00:52.781Z,17.68
2022-11-17T06:01:52.787Z,17.77
2022-11-17T06:02:52.784Z,17.72
2022-11-17T06:03:52.846Z,17.71
2022-11-17T06:04:52.774Z,17.72
2022-11-17T06:05:52.775Z,17.77
2022-11-17T06:06:52.832Z,17.72
2022-11-17T06:07:52.770Z,17.77
2022-11-17T06:08:52.769Z,17.70
2022-11-17T06:09:52.765Z,17.66
2022-11-17T06:10:52.762Z,17.72
2022-11-17T06:11:52.758Z,17.68
2022-11-17T06:12:52.751Z,17.70
2022-11-17T06:13:52.758Z,17.72
2022-11-17T06:14:52.852Z,17.68
2022-11-17T06:15:52.741Z,17.74
2022-11-17T06:16:52.746Z,17.72
2022-11-17T06:17:52.732Z,17.74
2022-11-17T06:18:52.734Z,17.74
2022-11-17T06:19:52.729Z,17.77
2022-11-17T06:20:52.731Z,17.75
2022-11-17T06:22:11.204Z,17.79
2022-11-17T06:22:52.722Z,17.82
2022-11-17T06:23:52.714Z,17.81
2022-11-17T06:24:52.723Z,17.86
2022-11-17T06:25:52.707Z,17.87
2022-11-17T06:26:52.723Z,17.92
2022-11-17T06:27:52.711Z,17.89
2022-11-17T06:28:52.706Z,18.03
2022-11-17T06:29:52.719Z,17.93
2022-11-17T06:30:52.809Z,17.99
2022-11-17T06:31:52.703Z,17.97
2022-11-17T06:32:52.704Z,18.07
2022-11-17T06:33:52.706Z,18.07
2022-11-17T06:34:56.032Z,18.10
2022-11-17T06:35:52.687Z,18.20
2022-11-17T06:36:52.698Z,18.14
2022-11-17T06:37:52.672Z,18.20
2022-11-17T06:38:52.683Z,18.20
2022-11-17T06:39:52.691Z,18.29
2022-11-17T06:40:52.677Z,18.27
2022-11-17T06:41:52.696Z,18.25
2022-11-17T06:42:52.676Z,18.39
2022-11-17T06:43:52.680Z,18.36
2022-11-17T06:44:52.667Z,18.45
2022-11-17T06:45:52.655Z,18.44
2022-11-17T06:46:52.766Z,18.45
2022-11-17T06:47:52.656Z,18.51
2022-11-17T06:48:52.655Z,18.42
2022-11-17T06:49:52.662Z,18.50
2022-11-17T06:50:52.661Z,18.57
2022-11-17T06:51:52.656Z,18.50
2022-11-17T06:52:52.653Z,18.52
2022-11-17T06:53:52.651Z,18.57
2022-11-17T06:54:52.652Z,18.51
2022-11-17T06:55:52.655Z,18.57
2022-11-17T06:56:52.646Z,18.54
2022-11-17T06:57:53.659Z,18.54
2022-11-17T06:58:52.637Z,18.62
2022-11-17T06:59:52.671Z,18.54
2022-11-17T07:00:52.714Z,18.58
2022-11-17T07:01:52.642Z,18.58
2022-11-17T07:02:52.757Z,18.58
2022-11-17T07:03:52.647Z,18.55
2022-11-17T07:04:52.621Z,18.54
2022-11-17T07:05:52.628Z,18.58
2022-11-17T07:06:52.693Z,18.57
2022-11-17T07:07:52.628Z,18.58
2022-11-17T07:08:52.617Z,18.57
2022-11-17T07:09:52.614Z,18.66
2022-11-17T07:10:52.612Z,18.63
2022-11-17T07:11:52.610Z,18.54
2022-11-17T07:12:52.604Z,18.57
2022-11-17T07:13:52.612Z,18.54
2022-11-17T07:14:52.618Z,18.62
2022-11-17T07:15:52.603Z,18.63
2022-11-17T07:16:52.594Z,18.54
2022-11-17T07:17:52.600Z,18.54
2022-11-17T07:18:52.703Z,18.52
2022-11-17T07:19:52.610Z,18.50
2022-11-17T07:20:52.611Z,18.51
2022-11-17T07:21:52.591Z,18.58
2022-11-17T07:22:52.584Z,18.58
2022-11-17T07:23:52.593Z,18.51
2022-11-17T07:24:52.588Z,18.57
2022-11-17T07:25:52.599Z,18.55
2022-11-17T07:26:52.584Z,18.54
2022-11-17T07:27:52.596Z,18.50
2022-11-17T07:28:52.584Z,18.58
2022-11-17T07:29:52.611Z,18.58
2022-11-17T07:30:52.574Z,18.48
2022-11-17T07:31:52.567Z,18.54
2022-11-17T07:32:54.776Z,18.51
2022-11-17T07:33:52.579Z,18.63
2022-11-17T07:34:52.578Z,18.57
2022-11-17T07:35:52.576Z,18.52
2022-11-17T07:36:52.580Z,18.52
2022-11-17T07:37:52.555Z,18.57
2022-11-17T07:38:52.571Z,18.57
2022-11-17T07:39:52.561Z,18.50
2022-11-17T07:40:52.544Z,18.57
2022-11-17T07:41:52.548Z,18.52
2022-11-17T07:42:52.542Z,18.52
2022-11-17T07:43:52.571Z,18.50
2022-11-17T07:44:52.542Z,18.48
2022-11-17T07:45:52.530Z,18.50
2022-11-17T07:46:52.527Z,18.52
2022-11-17T07:47:52.531Z,18.55
2022-11-17T07:48:52.522Z,18.54
2022-11-17T07:49:52.538Z,18.48
2022-11-17T07:50:52.635Z,18.54
2022-11-17T07:51:52.516Z,18.50
2022-11-17T07:52:52.513Z,18.47
2022-11-17T07:53:52.514Z,18.52
2022-11-17T07:54:52.517Z,18.52
2022-11-17T07:55:52.508Z,18.51
2022-11-17T07:56:52.531Z,18.47
2022-11-17T07:57:52.505Z,18.48
2022-11-17T07:58:52.496Z,18.45
2022-11-17T07:59:52.513Z,18.52
2022-11-17T08:00:52.636Z,18.51
2022-11-17T08:01:52.510Z,18.47
2022-11-17T08:02:52.493Z,18.44
2022-11-17T08:03:52.592Z,18.48
2022-11-17T08:04:52.485Z,18.52
2022-11-17T08:05:52.489Z,18.41
2022-11-17T08:06:52.603Z,18.51
2022-11-17T08:07:52.487Z,18.44
2022-11-17T08:08:52.473Z,18.50
2022-11-17T08:09:52.479Z,18.47
2022-11-17T08:10:52.466Z,18.48
2022-11-17T08:11:52.471Z,18.54
2022-11-17T08:12:52.475Z,18.51
2022-11-17T08:13:52.469Z,18.50
2022-11-17T08:14:52.460Z,18.48
2022-11-17T08:15:52.462Z,18.45
2022-11-17T08:16:52.463Z,18.48
2022-11-17T08:17:52.461Z,18.42
2022-11-17T08:18:52.961Z,18.45
2022-11-17T08:19:52.451Z,18.47
2022-11-17T08:20:52.446Z,18.47
2022-11-17T08:21:52.443Z,18.50
2022-11-17T08:22:52.551Z,18.45
2022-11-17T08:23:52.449Z,18.44
2022-11-17T08:24:52.434Z,18.41
2022-11-17T08:25:52.439Z,18.47
2022-11-17T08:26:52.430Z,18.44
2022-11-17T08:27:52.429Z,18.50
2022-11-17T08:28:58.104Z,18.47
2022-11-17T08:29:52.435Z,18.44
2022-11-17T08:30:52.421Z,18.47
2022-11-17T08:31:52.432Z,18.44
2022-11-17T08:32:52.449Z,18.44
2022-11-17T08:33:52.419Z,18.36
2022-11-17T08:34:52.413Z,18.39
2022-11-17T08:35:52.448Z,18.36
2022-11-17T08:36:52.405Z,18.33
2022-11-17T08:37:52.414Z,18.36
2022-11-17T08:38:52.520Z,18.35
2022-11-17T08:39:52.408Z,18.39
2022-11-17T08:40:52.396Z,18.41
2022-11-17T08:41:52.412Z,18.42
2022-11-17T08:42:57.524Z,18.36
2022-11-17T08:43:52.391Z,18.42
2022-11-17T08:44:52.386Z,18.33
2022-11-17T08:45:52.385Z,18.36
2022-11-17T08:46:52.384Z,18.35
2022-11-17T08:47:52.390Z,18.37
2022-11-17T08:48:56.845Z,18.36
2022-11-17T08:49:52.418Z,18.35
2022-11-17T08:50:52.377Z,18.37
2022-11-17T08:51:52.373Z,18.41
2022-11-17T08:52:52.371Z,18.35
2022-11-17T08:53:52.379Z,18.36
2022-11-17T08:54:52.603Z,18.39
2022-11-17T08:55:52.414Z,18.33
2022-11-17T08:56:52.385Z,18.39
2022-11-17T08:57:52.361Z,18.36
2022-11-17T08:58:52.357Z,18.36
2022-11-17T08:59:52.369Z,18.37
2022-11-17T09:00:52.421Z,18.33
2022-11-17T09:01:52.338Z,18.36
2022-11-17T09:02:52.338Z,18.35
2022-11-17T09:03:52.347Z,18.37
2022-11-17T09:04:52.362Z,18.41
2022-11-17T09:05:52.328Z,18.36
2022-11-17T09:06:52.346Z,18.33
2022-11-17T09:07:52.451Z,18.39
2022-11-17T09:08:52.355Z,18.35
2022-11-17T09:09:52.335Z,18.36
2022-11-17T09:10:52.434Z,18.30
2022-11-17T09:11:52.320Z,18.36
2022-11-17T09:12:52.322Z,18.39
2022-11-17T09:13:52.310Z,18.36
2022-11-17T09:14:52.305Z,18.30
2022-11-17T09:15:52.322Z,18.35
2022-11-17T09:16:52.305Z,18.41
2022-11-17T09:17:52.299Z,18.35
2022-11-17T09:18:52.296Z,18.42
2022-11-17T09:19:52.303Z,18.35
2022-11-17T09:20:52.301Z,18.35
2022-11-17T09:21:52.293Z,18.32
2022-11-17T09:22:52.303Z,18.35
2022-11-17T09:23:52.296Z,18.30
2022-11-17T09:24:52.286Z,18.39
2022-11-17T09:25:52.281Z,18.37
2022-11-17T09:26:52.370Z,18.36
2022-11-17T09:27:52.380Z,18.36
2022-11-17T09:28:52.269Z,18.33
2022-11-17T09:29:52.320Z,18.33
2022-11-17T09:30:52.274Z,18.36
2022-11-17T09:31:52.337Z,18.35
2022-11-17T09:32:52.269Z,18.33
2022-11-17T09:33:52.331Z,18.33
2022-11-17T09:34:52.383Z,18.33
2022-11-17T09:35:52.261Z,18.30
2022-11-17T09:36:52.260Z,18.33
2022-11-17T09:37:52.254Z,18.32
2022-11-17T09:38:52.243Z,18.33
2022-11-17T09:39:52.265Z,18.32
2022-11-17T09:40:52.252Z,18.36
2022-11-17T09:41:52.282Z,18.33
2022-11-17T09:42:52.348Z,18.30
2022-11-17T09:43:52.237Z,18.39
2022-11-17T09:44:52.241Z,18.33
2022-11-17T09:45:52.250Z,18.30
2022-11-17T09:46:52.232Z,18.30
2022-11-17T09:48:02.229Z,18.33
2022-11-17T09:48:52.307Z,18.37
2022-11-17T09:49:58.068Z,18.30
2022-11-17T09:50:52.217Z,18.36
2022-11-17T09:51:52.232Z,18.37
2022-11-17T09:52:52.214Z,18.26
2022-11-17T09:53:52.213Z,18.36
2022-11-17T09:54:52.215Z,18.33
2022-11-17T09:55:52.220Z,18.32
2022-11-17T09:56:52.208Z,18.33
2022-11-17T09:57:52.204Z,18.29
2022-11-17T09:58:52.223Z,18.30
2022-11-17T09:59:52.212Z,18.36
2022-11-17T10:00:52.208Z,18.36
2022-11-17T10:01:52.299Z,18.32
2022-11-17T10:02:52.189Z,18.35
2022-11-17T10:03:52.189Z,18.33
2022-11-17T10:04:52.188Z,18.35
2022-11-17T10:05:52.193Z,18.39
2022-11-17T10:06:52.268Z,18.33
2022-11-17T10:07:52.183Z,18.39
2022-11-17T10:08:52.175Z,18.30
2022-11-17T10:09:52.183Z,18.37
2022-11-17T10:10:52.178Z,18.35
2022-11-17T10:11:52.184Z,18.36
2022-11-17T10:12:52.173Z,18.36
2022-11-17T10:13:52.182Z,18.29
2022-11-17T10:14:52.277Z,18.32
2022-11-17T10:15:52.171Z,18.32
2022-11-17T10:16:52.167Z,18.37
2022-11-17T10:17:52.164Z,18.39
2022-11-17T10:18:52.146Z,18.32
2022-11-17T10:19:52.162Z,18.35
2022-11-17T10:20:52.156Z,18.30
2022-11-17T10:21:52.149Z,18.35
2022-11-17T10:22:52.186Z,18.39
2022-11-17T10:23:52.143Z,18.37
2022-11-17T10:24:52.163Z,18.36
2022-11-17T10:25:52.160Z,18.39
2022-11-17T10:26:52.141Z,18.35
2022-11-17T10:27:52.133Z,18.33
2022-11-17T10:28:52.134Z,18.37
2022-11-17T10:29:52.134Z,18.32
2022-11-17T10:30:52.159Z,18.30
2022-11-17T10:31:52.123Z,18.29
2022-11-17T10:32:52.115Z,18.27
2022-11-17T10:33:52.233Z,18.32
2022-11-17T10:34:52.117Z,18.29
2022-11-17T10:35:52.113Z,18.36
2022-11-17T10:36:52.116Z,18.33
2022-11-17T10:37:52.122Z,18.30
2022-11-17T10:38:52.145Z,18.30
2022-11-17T10:39:52.108Z,18.26
2022-11-17T10:40:52.094Z,18.32
2022-11-17T10:41:52.101Z,18.29
2022-11-17T10:42:52.090Z,18.29
2022-11-17T10:43:52.126Z,18.26
2022-11-17T10:44:52.099Z,18.36
2022-11-17T10:45:52.094Z,18.35
2022-11-17T10:46:53.727Z,18.30
2022-11-17T10:47:52.091Z,18.33
2022-11-17T10:48:52.083Z,18.33
2022-11-17T10:49:52.104Z,18.29
2022-11-17T10:50:52.078Z,18.30
2022-11-17T10:51:52.072Z,18.33
2022-11-17T10:52:52.065Z,18.33
2022-11-17T10:53:52.075Z,18.27
2022-11-17T10:54:52.070Z,18.35
2022-11-17T10:55:52.065Z,18.32
2022-11-17T10:56:52.061Z,18.32
2022-11-17T10:57:52.052Z,18.32
2022-11-17T10:58:52.054Z,18.25
2022-11-17T10:59:56.456Z,18.32
2022-11-17T11:00:52.072Z,18.30
2022-11-17T11:01:52.048Z,18.32
2022-11-17T11:02:52.113Z,18.33
2022-11-17T11:03:52.037Z,18.32
2022-11-17T11:04:52.040Z,18.33
2022-11-17T11:05:52.066Z,18.25
2022-11-17T11:06:52.093Z,18.30
2022-11-17T11:07:52.034Z,18.32
2022-11-17T11:08:52.037Z,18.32
2022-11-17T11:09:52.030Z,18.30
2022-11-17T11:10:52.037Z,18.29
2022-11-17T11:11:52.025Z,18.30
2022-11-17T11:12:52.034Z,18.35
2022-11-17T11:13:52.014Z,18.27
2022-11-17T11:14:52.016Z,18.29
2022-11-17T11:15:52.018Z,18.25
2022-11-17T11:16:52.009Z,18.32
2022-11-17T11:17:52.028Z,18.26
2022-11-17T11:18:52.022Z,18.27
2022-11-17T11:19:52.010Z,18.32
2022-11-17T11:20:52.014Z,18.32
2022-11-17T11:21:52.001Z,18.32
2022-11-17T11:22:51.999Z,18.29
2022-11-17T11:23:51.996Z,18.29
2022-11-17T11:24:51.996Z,18.32
2022-11-17T11:25:51.986Z,18.26
2022-11-17T11:26:51.984Z,18.33
2022-11-17T11:27:51.995Z,18.36
2022-11-17T11:28:54.891Z,18.25
2022-11-17T11:29:51.986Z,18.25
2022-11-17T11:30:51.975Z,18.32
2022-11-17T11:31:51.973Z,18.30
2022-11-17T11:32:51.983Z,18.35
2022-11-17T11:33:51.965Z,18.32
2022-11-17T11:34:51.987Z,18.26
2022-11-17T11:35:51.960Z,18.30
2022-11-17T11:36:51.965Z,18.29
2022-11-17T11:37:51.964Z,18.32
2022-11-17T11:38:51.966Z,18.32
2022-11-17T11:39:51.961Z,18.29
2022-11-17T11:40:51.969Z,18.29
2022-11-17T11:41:51.959Z,18.29
2022-11-17T11:42:51.952Z,18.33
2022-11-17T11:43:51.944Z,18.18
2022-11-17T11:44:51.958Z,18.30
2022-11-17T11:45:51.934Z,18.29
2022-11-17T11:46:51.952Z,18.35
2022-11-17T11:47:51.932Z,18.26
2022-11-17T11:48:51.938Z,18.33
2022-11-17T11:49:51.935Z,18.27
2022-11-17T11:50:51.962Z,18.32
2022-11-17T11:51:51.945Z,18.32
2022-11-17T11:52:51.928Z,18.33
2022-11-17T11:53:51.914Z,18.30
2022-11-17T11:54:51.921Z,18.29
2022-11-17T11:55:51.914Z,18.27
2022-11-17T11:56:51.912Z,18.32
2022-11-17T11:57:51.926Z,18.35
2022-11-17T11:58:51.916Z,18.36
2022-11-17T11:59:51.902Z,18.27
2022-11-17T12:00:51.911Z,18.29
2022-11-17T12:01:51.958Z,18.25
2022-11-17T12:02:51.949Z,18.29
2022-11-17T12:03:51.900Z,18.26
2022-11-17T12:04:51.891Z,18.29
2022-11-17T12:05:51.896Z,18.29
2022-11-17T12:06:51.998Z,18.29
2022-11-17T12:07:51.883Z,18.27
2022-11-17T12:08:51.887Z,18.29
2022-11-17T12:09:51.877Z,18.30
2022-11-17T12:10:51.878Z,18.32
2022-11-17T12:11:51.870Z,18.36
2022-11-17T12:12:51.927Z,18.30
2022-11-17T12:13:54.385Z,18.32
2022-11-17T12:14:51.877Z,18.27
2022-11-17T12:15:51.882Z,18.29
2022-11-17T12:16:51.865Z,18.32
2022-11-17T12:17:51.865Z,18.35
2022-11-17T12:18:51.896Z,18.35
2022-11-17T12:19:51.859Z,18.27
2022-11-17T12:20:51.863Z,18.30
2022-11-17T12:21:51.852Z,18.32
2022-11-17T12:22:51.886Z,18.25
2022-11-17T12:23:51.854Z,18.32
2022-11-17T12:24:51.843Z,18.29
2022-11-17T12:25:54.042Z,18.32
2022-11-17T12:26:51.853Z,18.26
2022-11-17T12:27:51.843Z,18.30
2022-11-17T12:28:51.850Z,18.32
2022-11-17T12:29:51.856Z,18.36
2022-11-17T12:30:51.828Z,18.32
2022-11-17T12:31:51.821Z,18.30
2022-11-17T12:32:51.837Z,18.27
2022-11-17T12:33:51.830Z,18.23
2022-11-17T12:34:51.826Z,18.26
2022-11-17T12:35:51.819Z,18.29
2022-11-17T12:36:51.823Z,18.32
2022-11-17T12:37:51.828Z,18.32
2022-11-17T12:38:51.931Z,18.35
2022-11-17T12:39:51.813Z,18.32
2022-11-17T12:40:51.812Z,18.30
2022-11-17T12:41:54.762Z,18.29
2022-11-17T12:42:51.796Z,18.35
2022-11-17T12:43:51.800Z,18.36
2022-11-17T12:44:51.801Z,18.29
2022-11-17T12:45:51.810Z,18.32
2022-11-17T12:46:51.788Z,18.37
2022-11-17T12:48:18.297Z,18.27
2022-11-17T12:48:51.814Z,18.29
2022-11-17T12:49:51.784Z,18.33
2022-11-17T12:50:51.778Z,18.29
2022-11-17T12:51:51.771Z,18.32
2022-11-17T12:52:51.771Z,18.29